Time;durP1;ratioP1;P1;durP2;ratioP2;P2;SDS_P1;SDS_P2;PMS_P1;PMS_P2;Temp;Humidity;BMP_temperature;BMP_pressure;BME280_temperature;BME280_humidity;BME280_pressure;Samples;Min_cycle;Max_cycle;Signal;HPM_P1;HPM_P2
2022/09/17 00:00:43;;;;;;;4.93;2.60;;;;;;;25.43;59.88;98490.06;5071362;28;20199;-62
2022/09/17 00:03:10;;;;;;;7.83;2.57;;;;;;;25.38;60.15;98492.13;5071620;28;20195;-62
2022/09/17 00:05:37;;;;;;;4.47;2.47;;;;;;;25.31;60.07;98483.66;5071601;28;20196;-63
2022/09/17 00:08:04;;;;;;;3.93;2.30;;;;;;;25.30;60.12;98493.72;5071627;28;20187;-61
2022/09/17 00:10:32;;;;;;;3.90;3.00;;;;;;;25.34;59.40;98497.41;5071245;28;20278;-60
2022/09/17 00:12:59;;;;;;;3.57;2.53;;;;;;;25.47;59.00;98495.69;5071669;28;20222;-59
2022/09/17 00:15:25;;;;;;;3.03;2.00;;;;;;;25.50;59.11;98489.59;5071721;28;20188;-60
2022/09/17 00:17:57;;;;;;;7.20;2.30;;;;;;;25.47;59.68;98479.38;5072246;28;20204;-61
2022/09/17 00:20:25;;;;;;;2.70;2.33;;;;;;;25.52;58.77;98490.09;5061340;28;20196;-61
2022/09/17 00:22:52;;;;;;;2.97;1.80;;;;;;;25.53;59.44;98478.91;5052058;28;20192;-61
2022/09/17 00:25:19;;;;;;;3.03;2.13;;;;;;;25.55;59.33;98492.19;5050866;28;20196;-62
2022/09/17 00:27:46;;;;;;;6.33;2.30;;;;;;;25.47;59.41;98490.25;5051924;28;20193;-61
2022/09/17 00:30:14;;;;;;;4.33;1.93;;;;;;;25.47;59.06;98491.03;5051636;28;20637;-61
2022/09/17 00:32:40;;;;;;;3.73;1.97;;;;;;;25.45;59.21;98490.56;5052220;28;20192;-61
2022/09/17 00:35:09;;;;;;;3.97;1.93;;;;;;;25.35;60.10;98492.78;5051644;28;20618;-61
2022/09/17 00:37:36;;;;;;;4.43;2.30;;;;;;;25.22;60.50;98494.44;5051561;28;20188;-61
2022/09/17 00:40:03;;;;;;;3.03;2.20;;;;;;;25.13;60.77;98493.63;5051803;28;20203;-61
2022/09/17 00:42:30;;;;;;;7.13;2.53;;;;;;;25.07;61.13;98494.09;5051679;28;20211;-61
2022/09/17 00:44:57;;;;;;;2.83;2.10;;;;;;;25.01;61.52;98498.84;5051891;28;20201;-61
2022/09/17 00:47:29;;;;;;;4.83;2.40;;;;;;;25.06;61.48;98495.97;5051301;28;20251;-61
2022/09/17 00:49:59;;;;;;;6.47;2.47;;;;;;;25.00;61.29;98492.59;5051533;28;20254;-62
2022/09/17 00:52:31;;;;;;;5.13;2.30;;;;;;;24.96;61.57;98483.47;5051799;28;20250;-61
2022/09/17 00:55:05;;;;;;;4.10;2.20;;;;;;;24.82;62.15;98490.94;5051242;28;20235;-61
2022/09/17 00:57:32;;;;;;;6.03;2.33;;;;;;;24.79;62.17;98485.34;5051055;28;20653;-61
2022/09/17 00:59:59;;;;;;;5.63;2.70;;;;;;;24.75;62.75;98482.41;5051312;28;20261;-61
2022/09/17 01:02:26;;;;;;;5.53;2.80;;;;;;;24.64;63.15;98489.25;5050988;28;20737;-61
2022/09/17 01:04:54;;;;;;;4.23;2.53;;;;;;;24.62;63.17;98496.09;5051935;28;20254;-61
2022/09/17 01:07:43;;;;;;;8.13;2.60;;;;;;;24.46;63.52;98489.44;5051660;28;20258;-62
2022/09/17 01:10:20;;;;;;;3.37;2.80;;;;;;;24.28;64.47;98485.78;5050880;28;20240;-61
2022/09/17 01:13:02;;;;;;;6.13;3.20;;;;;;;24.24;64.14;98479.38;5051462;28;20636;-61
2022/09/17 01:15:34;;;;;;;6.40;3.00;;;;;;;24.29;64.07;98475.72;5051544;28;20626;-61
2022/09/17 01:18:17;;;;;;;3.57;2.60;;;;;;;24.27;64.27;98467.91;5051225;28;20650;-61
2022/09/17 01:21:23;;;;;;;7.33;3.37;;;;;;;24.21;64.79;98477.28;5064471;28;20190;-61
2022/09/17 01:24:17;;;;;;;3.07;2.70;;;;;;;24.27;64.14;98484.19;5071252;28;20191;-61
2022/09/17 01:27:13;;;;;;;4.30;2.90;;;;;;;23.88;65.83;98481.28;5071218;28;20261;-61
2022/09/17 01:29:59;;;;;;;4.30;3.00;;;;;;;23.82;66.05;98482.53;5026726;28;20222;-62
2022/09/17 01:32:33;;;;;;;5.27;3.13;;;;;;;23.85;65.83;98481.13;5071081;28;20278;-61
2022/09/17 01:35:05;;;;;;;9.13;3.67;;;;;;;23.83;66.11;98484.13;5070845;28;20194;-61
2022/09/17 01:37:37;;;;;;;5.57;3.70;;;;;;;23.82;66.20;98482.53;5073965;28;20181;-61
2022/09/17 01:40:08;;;;;;;8.27;3.37;;;;;;;23.85;66.17;98486.53;5074102;28;20191;-61
2022/09/17 01:42:41;;;;;;;7.90;2.80;;;;;;;24.00;65.69;98483.50;5074217;28;20191;-62
2022/09/17 01:45:14;;;;;;;5.57;3.03;;;;;;;24.14;64.76;98479.59;5074904;28;20187;-61
2022/09/17 01:47:47;;;;;;;7.37;2.90;;;;;;;24.16;65.10;98490.97;5074249;28;20194;-63
2022/09/17 01:50:21;;;;;;;2.80;2.60;;;;;;;24.13;64.95;98494.28;5074403;28;20561;-61
2022/09/17 01:52:51;;;;;;;5.00;3.13;;;;;;;24.02;65.47;98476.63;5074669;28;20187;-61
2022/09/17 01:55:21;;;;;;;6.17;3.07;;;;;;;24.11;64.84;98491.09;5074918;28;20190;-61
2022/09/17 01:57:53;;;;;;;5.97;3.43;;;;;;;24.26;64.34;98482.56;5074193;28;20584;-61
2022/09/17 02:00:21;;;;;;;11.63;3.37;;;;;;;24.29;64.40;98471.09;5073647;28;20231;-61
2022/09/17 02:02:56;;;;;;;7.27;2.83;;;;;;;24.22;64.94;98473.44;5073909;28;20226;-61
2022/09/17 02:05:29;;;;;;;5.73;3.43;;;;;;;24.25;64.77;98472.03;5074004;28;20278;-63
2022/09/17 02:07:59;;;;;;;3.97;3.20;;;;;;;24.10;65.00;98466.97;5074360;28;20190;-63
2022/09/17 02:10:31;;;;;;;5.93;3.07;;;;;;;24.05;65.34;98457.03;5074350;28;20237;-62
2022/09/17 02:13:02;;;;;;;7.27;3.43;;;;;;;23.98;65.62;98453.94;5074358;28;20217;-62
2022/09/17 02:15:34;;;;;;;5.53;3.23;;;;;;;23.92;65.62;98466.03;5074298;28;20184;-61
2022/09/17 02:18:08;;;;;;;6.80;3.37;;;;;;;23.79;66.15;98464.16;5073978;28;20282;-62
2022/09/17 02:20:40;;;;;;;11.30;2.97;;;;;;;23.70;66.78;98454.34;5062017;28;20195;-62
2022/09/17 02:23:14;;;;;;;9.83;3.60;;;;;;;23.64;66.97;98453.63;5054125;28;20621;-61
2022/09/17 02:25:47;;;;;;;9.23;3.70;;;;;;;23.57;67.49;98450.53;5053142;28;20245;-62
2022/09/17 02:28:22;;;;;;;9.73;4.17;;;;;;;23.56;67.62;98451.66;5053604;28;20190;-61
2022/09/17 02:30:49;;;;;;;6.07;3.73;;;;;;;23.52;67.95;98450.66;5053602;28;20714;-62
2022/09/17 02:33:19;;;;;;;6.97;3.17;;;;;;;23.45;67.99;98455.72;5054003;28;20194;-62
2022/09/17 02:35:46;;;;;;;7.37;3.60;;;;;;;23.40;68.52;98453.09;5053720;28;20662;-62
2022/09/17 02:38:13;;;;;;;3.07;2.87;;;;;;;23.35;68.60;98439.66;5053474;28;20619;-62
2022/09/17 02:40:49;;;;;;;5.77;3.60;;;;;;;23.26;68.91;98441.47;5053547;28;20202;-62
2022/09/17 02:43:25;;;;;;;11.20;3.60;;;;;;;23.28;69.16;98428.41;5053953;28;20271;-62
2022/09/17 02:46:02;;;;;;;6.33;3.47;;;;;;;23.38;68.55;98417.38;5053203;28;20615;-62
2022/09/17 02:49:00;;;;;;;4.27;3.10;;;;;;;23.42;68.45;98428.41;5053207;28;20247;-62
2022/09/17 02:51:38;;;;;;;7.77;3.33;;;;;;;23.48;68.39;98427.97;5053325;28;20190;-62
2022/09/17 02:54:12;;;;;;;7.70;2.97;;;;;;;23.55;68.10;98422.94;5053330;28;20729;-62
2022/09/17 02:56:46;;;;;;;8.03;3.13;;;;;;;23.58;67.86;98416.09;5053697;28;20181;-62
2022/09/17 02:59:23;;;;;;;6.77;3.97;;;;;;;23.50;67.82;98414.94;5053716;28;20190;-62
2022/09/17 03:01:57;;;;;;;5.43;3.63;;;;;;;23.42;68.60;98414.84;5053413;28;20224;-62
2022/09/17 03:04:27;;;;;;;11.97;3.63;;;;;;;23.45;68.10;98423.19;5053106;28;20187;-62
2022/09/17 03:06:55;;;;;;;4.87;3.37;;;;;;;23.44;68.07;98416.13;5053094;28;20186;-62
2022/09/17 03:09:22;;;;;;;6.93;3.77;;;;;;;23.44;68.16;98412.63;5052522;28;20294;-62
2022/09/17 03:11:49;;;;;;;10.70;3.47;;;;;;;23.35;68.49;98403.59;5052736;28;20203;-62
2022/09/17 03:14:15;;;;;;;7.43;3.67;;;;;;;23.29;68.96;98402.13;5053281;28;20194;-62
2022/09/17 03:16:42;;;;;;;7.67;3.90;;;;;;;23.22;69.12;98391.69;5052310;28;20731;-63
2022/09/17 03:19:09;;;;;;;7.80;3.20;;;;;;;23.14;69.63;98378.84;5053067;28;20200;-62
2022/09/17 03:21:37;;;;;;;6.00;3.40;;;;;;;23.13;69.87;98388.09;5072807;28;20616;-61
2022/09/17 03:24:04;;;;;;;3.77;3.00;;;;;;;23.09;70.55;98387.09;5072646;28;20688;-63
2022/09/17 03:26:31;;;;;;;5.47;2.93;;;;;;;23.13;69.50;98374.53;5072759;28;20201;-61
2022/09/17 03:28:58;;;;;;;8.13;3.70;;;;;;;22.97;69.74;98365.13;5072685;28;20627;-61
2022/09/17 03:31:24;;;;;;;6.80;3.30;;;;;;;23.00;70.37;98380.78;5072183;28;20218;-62
2022/09/17 03:33:51;;;;;;;5.73;3.33;;;;;;;23.13;69.81;98388.09;5072789;28;20247;-61
2022/09/17 03:36:18;;;;;;;6.67;3.60;;;;;;;23.31;69.09;98389.06;5072168;28;20680;-61
2022/09/17 03:38:46;;;;;;;4.13;3.10;;;;;;;23.49;68.37;98388.91;5072854;28;20246;-62
2022/09/17 03:41:13;;;;;;;9.93;3.50;;;;;;;23.58;67.40;98387.09;5072522;28;20202;-62
2022/09/17 03:43:39;;;;;;;12.67;4.27;;;;;;;23.66;66.77;98366.56;5061602;28;20198;-64
2022/09/17 03:46:06;;;;;;;10.47;3.67;;;;;;;23.61;67.48;98353.13;5050139;28;20198;-62
2022/09/17 03:48:35;;;;;;;8.27;3.30;;;;;;;23.75;66.59;98362.00;5051388;28;20208;-63
2022/09/17 03:51:03;;;;;;;11.17;3.87;;;;;;;23.68;66.99;98357.00;5051612;28;20257;-61
2022/09/17 03:53:29;;;;;;;9.33;3.90;;;;;;;23.63;67.33;98353.63;5051669;28;20199;-63
2022/09/17 03:55:59;;;;;;;7.13;3.60;;;;;;;23.52;67.92;98363.91;5051527;28;20190;-61
2022/09/17 03:58:26;;;;;;;7.03;3.33;;;;;;;23.47;68.54;98358.59;5051607;28;20190;-61
2022/09/17 04:00:55;;;;;;;6.53;3.17;;;;;;;23.57;67.66;98357.56;5050346;28;20228;-62
2022/09/17 04:03:22;;;;;;;12.60;3.77;;;;;;;23.71;66.85;98367.25;5051648;28;20201;-62
2022/09/17 04:05:49;;;;;;;4.43;3.10;;;;;;;23.83;66.45;98363.97;5051804;28;20197;-62
2022/09/17 04:08:15;;;;;;;5.30;3.50;;;;;;;23.85;66.56;98367.19;5051521;28;20693;-62
2022/09/17 04:10:43;;;;;;;5.97;3.33;;;;;;;23.77;66.93;98352.44;5051030;28;20210;-62
2022/09/17 04:13:11;;;;;;;7.20;3.63;;;;;;;23.81;66.56;98358.84;5051206;28;20252;-62
2022/09/17 04:15:38;;;;;;;5.73;3.30;;;;;;;23.81;66.94;98363.50;5051442;28;20644;-62
2022/09/17 04:18:05;;;;;;;4.23;3.03;;;;;;;23.92;66.34;98376.53;5051761;28;20194;-62
2022/09/17 04:20:32;;;;;;;5.37;2.63;;;;;;;24.13;65.38;98372.19;5062628;28;20210;-62
2022/09/17 04:22:59;;;;;;;21.97;4.40;;;;;;;24.23;65.07;98358.38;5071472;28;20256;-63
2022/09/17 04:25:26;;;;;;;4.60;3.00;;;;;;;24.22;65.10;98356.75;5071329;28;20199;-62
2022/09/17 04:27:52;;;;;;;5.97;2.97;;;;;;;24.28;64.60;98368.25;5070988;28;20199;-63
2022/09/17 04:30:20;;;;;;;6.60;3.40;;;;;;;24.25;65.46;98358.84;5071391;28;20218;-62
2022/09/17 04:32:47;;;;;;;11.67;3.13;;;;;;;24.27;64.83;98353.91;5071360;28;20259;-62
2022/09/17 04:35:14;;;;;;;8.00;3.27;;;;;;;24.30;64.69;98336.97;5071513;28;20207;-62
2022/09/17 04:37:41;;;;;;;7.50;3.00;;;;;;;24.28;64.59;98322.94;5071120;28;20195;-62
2022/09/17 04:40:09;;;;;;;4.77;3.03;;;;;;;24.26;65.19;98324.38;5071368;28;20205;-62
2022/09/17 04:42:36;;;;;;;5.77;2.97;;;;;;;24.27;65.97;98337.63;5071192;28;20574;-63
2022/09/17 04:45:03;;;;;;;6.13;2.93;;;;;;;24.38;65.20;98352.50;5071577;28;20545;-62
2022/09/17 04:47:31;;;;;;;5.27;3.20;;;;;;;24.60;63.87;98366.06;5070916;28;20674;-62
2022/09/17 04:49:58;;;;;;;11.03;3.23;;;;;;;24.83;64.41;98378.44;5070894;28;20764;-62
2022/09/17 04:52:24;;;;;;;4.63;3.00;;;;;;;24.98;62.97;98379.13;5071288;28;20218;-62
2022/09/17 04:54:51;;;;;;;5.07;4.13;;;;;;;24.98;62.32;98380.72;5071409;28;20254;-63
2022/09/17 04:57:18;;;;;;;11.33;4.40;;;;;;;24.85;61.64;98386.28;5071128;28;20199;-62
2022/09/17 04:59:44;;;;;;;8.57;4.10;;;;;;;24.78;61.24;98396.78;5070902;28;20205;-60
2022/09/17 05:02:11;;;;;;;4.27;3.33;;;;;;;24.61;61.61;98383.94;5070927;28;20211;-61
2022/09/17 05:04:39;;;;;;;5.77;3.60;;;;;;;24.72;61.12;98379.84;5070769;28;20219;-63
2022/09/17 05:07:06;;;;;;;15.13;4.33;;;;;;;24.83;61.51;98367.56;5070046;28;20199;-62
2022/09/17 05:09:33;;;;;;;15.20;4.20;;;;;;;25.25;60.10;98387.81;5070585;28;20236;-62
2022/09/17 05:11:59;;;;;;;10.83;4.13;;;;;;;25.61;58.15;98382.91;5072361;28;20701;-62
2022/09/17 05:14:26;;;;;;;6.93;3.90;;;;;;;25.87;57.73;98380.97;5074586;28;20200;-62
2022/09/17 05:16:53;;;;;;;4.50;3.30;;;;;;;26.15;56.96;98381.41;5074668;28;20728;-61
2022/09/17 05:19:20;;;;;;;11.73;3.77;;;;;;;26.46;56.51;98387.44;5072756;28;20199;-63
2022/09/17 05:21:48;;;;;;;8.10;2.87;;;;;;;26.72;54.91;98385.44;5054888;28;20250;-63
2022/09/17 05:24:14;;;;;;;8.53;3.30;;;;;;;27.07;53.66;98386.88;5054378;28;20197;-63
2022/09/17 05:26:41;;;;;;;4.10;3.50;;;;;;;27.33;52.68;98398.44;5053942;28;20196;-62
2022/09/17 05:29:08;;;;;;;5.33;3.07;;;;;;;27.69;51.32;98415.03;5053831;28;20188;-62
2022/09/17 05:31:34;;;;;;;5.80;2.73;;;;;;;28.14;50.27;98421.41;5054334;28;20282;-62
2022/09/17 05:34:01;;;;;;;9.63;3.10;;;;;;;28.57;48.66;98414.38;5054478;28;20675;-63
2022/09/17 05:36:28;;;;;;;5.00;2.83;;;;;;;28.92;47.73;98414.75;5054051;28;20193;-63
2022/09/17 05:38:56;;;;;;;5.23;2.53;;;;;;;29.04;46.25;98414.78;5053743;28;20246;-62
2022/09/17 05:41:23;;;;;;;5.37;2.97;;;;;;;29.01;46.86;98412.72;5054021;28;20192;-63
2022/09/17 05:43:50;;;;;;;7.77;2.90;;;;;;;29.10;45.64;98429.81;5053773;28;20197;-61
2022/09/17 05:46:16;;;;;;;9.90;3.03;;;;;;;29.00;45.92;98433.00;5054376;28;20197;-62
2022/09/17 05:48:43;;;;;;;10.77;2.80;;;;;;;28.71;46.84;98435.91;5053664;28;20193;-63
2022/09/17 05:51:10;;;;;;;9.90;3.13;;;;;;;28.30;47.72;98431.34;5053414;28;20226;-63
2022/09/17 05:53:37;;;;;;;6.63;2.70;;;;;;;27.85;49.09;98429.69;5053223;28;20188;-62
2022/09/17 05:56:05;;;;;;;6.70;3.07;;;;;;;27.49;50.43;98427.53;5053497;28;20199;-63
2022/09/17 05:58:33;;;;;;;6.77;3.13;;;;;;;27.40;51.59;98428.72;5053118;28;20746;-62
2022/09/17 06:01:01;;;;;;;9.73;3.33;;;;;;;27.67;50.52;98439.91;5053408;28;20204;-62
2022/09/17 06:03:27;;;;;;;6.30;3.20;;;;;;;28.04;49.18;98435.44;5053480;28;20192;-63
2022/09/17 06:05:56;;;;;;;9.67;3.20;;;;;;;28.33;48.91;98446.25;5053385;28;20664;-63
2022/09/17 06:08:24;;;;;;;7.63;2.90;;;;;;;28.42;48.27;98445.06;5053247;28;20193;-63
2022/09/17 06:10:51;;;;;;;8.63;2.93;;;;;;;28.38;48.62;98443.34;5053404;28;20764;-64
2022/09/17 06:13:20;;;;;;;11.30;3.40;;;;;;;28.37;48.92;98463.56;5053341;28;20203;-62
2022/09/17 06:15:50;;;;;;;8.07;3.10;;;;;;;28.55;48.73;98465.03;5053934;28;20196;-62
2022/09/17 06:18:18;;;;;;;9.27;3.30;;;;;;;28.58;48.92;98458.91;5052834;28;20292;-62
2022/09/17 06:20:53;;;;;;;5.83;3.23;;;;;;;28.75;48.21;98445.81;5065556;28;20279;-63
2022/09/17 06:23:19;;;;;;;11.60;3.30;;;;;;;28.93;47.42;98451.88;5072461;28;20337;-62
2022/09/17 06:25:51;;;;;;;7.43;2.83;;;;;;;28.39;49.26;98467.59;5072021;28;20195;-63
2022/09/17 06:28:18;;;;;;;7.27;3.17;;;;;;;28.00;50.76;98464.56;5072835;28;20644;-61
2022/09/17 06:30:46;;;;;;;6.67;2.93;;;;;;;27.72;51.29;98485.31;5071678;28;20285;-63
2022/09/17 06:33:13;;;;;;;25.47;5.10;;;;;;;27.61;51.95;98473.19;5072289;28;20238;-63
2022/09/17 06:35:39;;;;;;;7.20;2.97;;;;;;;26.67;53.58;98475.53;5070927;28;20553;-62
2022/09/17 06:38:07;;;;;;;4.03;3.10;;;;;;;26.28;54.83;98473.81;5070712;28;20188;-63
2022/09/17 06:40:33;;;;;;;9.13;3.07;;;;;;;26.06;56.25;98476.72;5070898;28;20219;-63
2022/09/17 06:43:00;;;;;;;6.40;3.03;;;;;;;26.17;56.20;98493.53;5071018;28;20188;-63
2022/09/17 06:45:27;;;;;;;3.53;2.87;;;;;;;26.30;55.88;98495.28;5070883;28;20191;-62
2022/09/17 06:47:55;;;;;;;7.50;3.00;;;;;;;26.44;55.49;98483.09;5070800;28;20204;-62
2022/09/17 06:50:23;;;;;;;7.07;3.23;;;;;;;26.58;55.69;98489.16;5072226;28;20609;-62
2022/09/17 06:52:51;;;;;;;5.73;2.57;;;;;;;26.62;55.54;98495.56;5072457;28;20203;-63
2022/09/17 06:55:18;;;;;;;6.07;2.80;;;;;;;27.13;53.55;98478.25;5072543;28;20192;-64
2022/09/17 06:57:45;;;;;;;6.93;3.10;;;;;;;27.42;52.67;98465.44;5072661;28;20265;-63
2022/09/17 07:00:13;;;;;;;5.37;3.13;;;;;;;27.48;52.06;98485.16;5072257;28;20697;-62
2022/09/17 07:02:40;;;;;;;5.80;2.93;;;;;;;26.91;53.88;98471.09;5072761;28;20269;-63
2022/09/17 07:05:09;;;;;;;3.30;2.60;;;;;;;27.20;52.81;98479.34;5072357;28;20250;-62
2022/09/17 07:07:35;;;;;;;7.83;2.87;;;;;;;27.43;52.40;98496.22;5072639;28;20265;-62
2022/09/17 07:10:02;;;;;;;10.93;3.93;;;;;;;27.37;52.36;98486.66;5072220;28;20241;-62
2022/09/17 07:12:29;;;;;;;9.63;3.93;;;;;;;26.95;53.68;98471.28;5072518;28;20220;-62
2022/09/17 07:14:56;;;;;;;8.27;3.40;;;;;;;26.85;54.34;98445.16;5072176;28;20625;-62
2022/09/17 07:17:22;;;;;;;10.90;3.30;;;;;;;26.99;53.68;98442.22;5072169;28;20192;-62
2022/09/17 07:19:49;;;;;;;11.00;3.47;;;;;;;27.04;53.21;98442.03;5066740;28;20258;-63
2022/09/17 07:22:18;;;;;;;18.27;3.60;;;;;;;26.88;53.72;98455.44;5052023;28;20228;-62
2022/09/17 07:24:44;;;;;;;16.87;3.30;;;;;;;26.67;53.62;98442.84;5052082;28;20197;-63
2022/09/17 07:27:11;;;;;;;15.03;3.80;;;;;;;26.78;53.53;98455.78;5051801;28;20338;-63
2022/09/17 07:29:40;;;;;;;9.90;3.80;;;;;;;26.72;54.42;98459.00;5052273;28;20204;-63
2022/09/17 07:32:07;;;;;;;10.53;2.90;;;;;;;26.99;53.56;98444.97;5051957;28;20754;-63
2022/09/17 07:34:33;;;;;;;8.30;2.80;;;;;;;27.02;53.36;98438.81;5051924;28;20582;-62
2022/09/17 07:37:00;;;;;;;8.63;3.90;;;;;;;27.34;53.12;98432.75;5052004;28;20189;-62
2022/09/17 07:39:28;;;;;;;10.77;3.87;;;;;;;27.61;51.66;98432.25;5051847;28;20659;-62
2022/09/17 07:41:55;;;;;;;5.07;3.13;;;;;;;27.96;50.51;98417.22;5051427;28;20645;-64
2022/09/17 07:44:22;;;;;;;8.30;3.37;;;;;;;28.48;49.06;98426.53;5051337;28;20193;-63
2022/09/17 07:46:48;;;;;;;6.93;3.63;;;;;;;29.02;48.14;98419.78;5051026;28;20747;-62
2022/09/17 07:49:15;;;;;;;5.67;3.70;;;;;;;29.45;46.42;98428.19;5051327;28;20191;-62
2022/09/17 07:51:42;;;;;;;10.73;3.47;;;;;;;29.88;45.32;98441.25;5051672;28;20298;-63
2022/09/17 07:54:09;;;;;;;9.13;3.93;;;;;;;30.11;44.49;98429.41;5050877;28;20255;-63
2022/09/17 07:56:37;;;;;;;16.37;3.80;;;;;;;30.36;43.87;98421.88;5051391;28;20192;-62
2022/09/17 07:59:04;;;;;;;6.10;3.50;;;;;;;30.87;42.75;98446.38;5051362;28;20201;-62
2022/09/17 08:01:35;;;;;;;10.03;3.60;;;;;;;31.27;41.40;98444.25;5051456;28;20266;-64
2022/09/17 08:04:02;;;;;;;9.40;3.13;;;;;;;31.27;40.65;98452.47;5051177;28;20181;-63
2022/09/17 08:06:30;;;;;;;3.67;2.70;;;;;;;31.59;40.04;98447.72;5051056;28;20196;-63
2022/09/17 08:08:57;;;;;;;11.33;3.63;;;;;;;31.95;38.93;98447.38;5050990;28;20286;-63
2022/09/17 08:11:27;;;;;;;8.13;2.83;;;;;;;32.09;38.70;98431.97;5050924;28;20220;-62
2022/09/17 08:13:55;;;;;;;11.63;3.07;;;;;;;32.38;37.59;98422.34;5051214;28;20200;-62
2022/09/17 08:16:23;;;;;;;14.57;3.33;;;;;;;32.39;37.75;98443.19;5050984;28;20246;-63
2022/09/17 08:18:55;;;;;;;8.10;3.00;;;;;;;32.62;37.40;98431.03;5051018;28;20664;-63
2022/09/17 08:21:22;;;;;;;10.73;2.93;;;;;;;32.74;36.23;98441.88;5069109;28;20188;-63
2022/09/17 08:23:49;;;;;;;5.47;3.00;;;;;;;32.57;36.61;98442.34;5070962;28;20279;-62
2022/09/17 08:26:18;;;;;;;7.77;2.80;;;;;;;32.65;36.96;98438.56;5071487;28;20196;-62
2022/09/17 08:28:46;;;;;;;8.30;3.10;;;;;;;32.91;36.15;98426.88;5070931;28;20207;-64
2022/09/17 08:31:16;;;;;;;12.03;2.83;;;;;;;33.01;35.90;98424.28;5070701;28;20223;-63
2022/09/17 08:33:43;;;;;;;5.80;2.47;;;;;;;33.16;36.02;98426.09;5070703;28;20655;-63
2022/09/17 08:36:11;;;;;;;6.83;2.57;;;;;;;33.12;35.49;98424.47;5070886;28;20195;-63
2022/09/17 08:38:39;;;;;;;16.83;3.40;;;;;;;33.08;35.53;98429.91;5070906;28;20650;-63
2022/09/17 08:41:19;;;;;;;4.50;2.37;;;;;;;32.93;35.27;98421.78;5070916;28;20187;-63
2022/09/17 08:43:52;;;;;;;9.73;2.63;;;;;;;32.49;36.27;98423.31;5070898;28;20556;-63
2022/09/17 08:46:21;;;;;;;3.47;2.53;;;;;;;32.36;36.40;98417.22;5071547;28;20184;-62
2022/09/17 08:48:53;;;;;;;7.83;2.43;;;;;;;32.42;37.08;98418.50;5074671;28;20222;-63
2022/09/17 08:51:31;;;;;;;4.23;2.37;;;;;;;32.37;36.90;98421.56;5074425;28;20211;-62
2022/09/17 08:54:06;;;;;;;7.47;2.70;;;;;;;32.56;36.87;98429.78;5074704;28;20191;-63
2022/09/17 08:56:36;;;;;;;8.13;2.50;;;;;;;32.63;36.96;98402.38;5075051;28;20249;-64
2022/09/17 08:59:14;;;;;;;5.60;2.40;;;;;;;32.60;36.06;98394.88;5074220;28;20631;-63
2022/09/17 09:01:51;;;;;;;11.57;3.13;;;;;;;32.58;36.20;98388.94;5074431;28;20183;-63
2022/09/17 09:04:39;;;;;;;8.87;3.10;;;;;;;32.62;36.69;98381.53;5074278;28;20650;-62
2022/09/17 09:07:09;;;;;;;5.03;2.77;;;;;;;32.79;36.85;98381.03;5074877;28;20275;-62
2022/09/17 09:09:40;;;;;;;10.03;2.67;;;;;;;32.95;35.96;98364.44;5074689;28;20234;-63
2022/09/17 09:12:13;;;;;;;8.07;2.80;;;;;;;32.79;35.92;98367.28;5074593;28;20755;-62
2022/09/17 09:14:48;;;;;;;10.43;3.10;;;;;;;32.86;35.27;98359.19;5075189;28;20188;-62
2022/09/17 09:17:21;;;;;;;7.83;3.10;;;;;;;32.51;36.49;98344.03;5074443;28;20646;-62
2022/09/17 09:19:49;;;;;;;13.07;3.27;;;;;;;32.74;35.61;98345.59;5069815;28;20235;-63
2022/09/17 09:22:30;;;;;;;5.13;2.80;;;;;;;32.89;35.82;98343.88;5054231;28;20616;-63
2022/09/17 09:25:11;;;;;;;4.77;2.80;;;;;;;32.96;35.12;98331.00;5054460;28;20615;-62
2022/09/17 09:27:48;;;;;;;9.87;2.70;;;;;;;32.49;35.89;98319.63;5053984;28;20270;-61
2022/09/17 09:30:17;;;;;;;6.17;2.70;;;;;;;32.66;35.98;98321.88;5054277;28;20655;-64
2022/09/17 09:32:56;;;;;;;10.32;3.00;;;;;;;32.84;36.13;98323.00;5054180;28;20446;-64
2022/09/17 09:35:26;;;;;;;9.93;3.15;;;;;;;32.91;34.76;98311.31;5054477;28;20267;-63
2022/09/17 09:37:59;;;;;;;13.97;3.37;;;;;;;33.03;34.80;98300.84;5054629;28;20199;-65
2022/09/17 09:40:37;;;;;;;6.97;3.43;;;;;;;32.82;35.33;98300.53;5054462;28;20254;-65
2022/09/17 09:43:15;;;;;;;7.10;2.83;;;;;;;32.77;34.84;98298.09;5054524;28;20254;-63
2022/09/17 09:45:59;;;;;;;10.00;2.90;;;;;;;32.18;35.68;98286.84;5054104;28;20644;-62
2022/09/17 09:48:36;;;;;;;6.33;2.60;;;;;;;32.24;35.31;98277.16;5054596;28;20193;-63
2022/09/17 09:51:15;;;;;;;5.20;2.50;;;;;;;32.15;35.92;98282.13;5054039;28;20188;-63
2022/09/17 09:53:53;;;;;;;7.73;2.77;;;;;;;32.36;35.65;98289.94;5054971;28;20618;-64
2022/09/17 09:56:38;;;;;;;6.67;2.47;;;;;;;32.68;34.77;98286.56;5054090;28;20223;-63
2022/09/17 09:59:07;;;;;;;5.10;2.67;;;;;;;32.84;34.54;98284.47;5052486;28;20617;-62
2022/09/17 10:01:38;;;;;;;8.63;2.80;;;;;;;32.70;34.81;98273.22;5054128;28;20285;-62
2022/09/17 10:04:16;;;;;;;5.37;2.53;;;;;;;32.68;34.55;98263.75;5053718;28;20191;-62
2022/09/17 10:06:43;;;;;;;6.43;2.80;;;;;;;32.85;34.27;98275.06;5053853;28;20246;-63
2022/09/17 10:09:12;;;;;;;6.05;2.63;;;;;;;32.90;34.74;98274.72;5054090;28;20319;-63
2022/09/17 10:11:39;;;;;;;6.10;2.77;;;;;;;32.87;34.20;98260.94;5053918;28;20220;-63
2022/09/17 10:14:23;;;;;;;4.30;2.67;;;;;;;32.90;33.75;98266.47;5053670;28;20197;-64
2022/09/17 10:16:50;;;;;;;4.97;2.73;;;;;;;33.02;33.90;98271.75;5053673;28;20271;-64
2022/09/17 10:19:24;;;;;;;5.13;2.60;;;;;;;33.03;33.70;98276.09;5054108;28;20188;-63
2022/09/17 10:21:51;;;;;;;7.93;2.60;;;;;;;32.99;34.11;98300.00;5073094;28;20195;-63
2022/09/17 10:24:24;;;;;;;5.60;2.37;;;;;;;32.89;34.63;98300.66;5072854;28;20647;-63
2022/09/17 10:26:51;;;;;;;5.37;2.50;;;;;;;32.65;35.32;98328.53;5073699;28;20187;-62
2022/09/17 10:29:20;;;;;;;5.83;2.93;;;;;;;32.64;35.62;98326.97;5073368;28;20192;-64
2022/09/17 10:31:49;;;;;;;12.70;3.17;;;;;;;32.41;37.40;98279.44;5072864;28;20569;-63
2022/09/17 10:34:23;;;;;;;8.27;3.17;;;;;;;32.30;37.08;98250.97;5073029;28;20203;-64
2022/09/17 10:36:50;;;;;;;8.33;2.97;;;;;;;32.40;37.05;98283.34;5072476;28;20188;-63
2022/09/17 10:39:35;;;;;;;9.33;3.10;;;;;;;32.06;38.82;98300.78;5073206;28;20245;-63
2022/09/17 10:42:04;;;;;;;6.93;2.97;;;;;;;31.88;40.45;98309.84;5072823;28;20195;-62
2022/09/17 10:44:32;;;;;;;16.97;4.23;;;;;;;31.58;44.54;98323.38;5072742;28;20663;-62
2022/09/17 10:47:12;;;;;;;3.60;3.00;;;;;;;31.38;42.12;98290.78;5073330;28;20188;-62
2022/09/17 10:49:43;;;;;;;13.83;4.00;;;;;;;31.25;45.77;98303.84;5072949;28;20188;-63
2022/09/17 10:52:18;;;;;;;12.10;4.30;;;;;;;30.96;48.13;98318.06;5072676;28;20215;-64
2022/09/17 10:55:18;;;;;;;14.33;3.73;;;;;;;30.54;48.60;98325.25;5072651;28;20249;-63
2022/09/17 10:58:13;;;;;;;12.97;3.43;;;;;;;30.08;49.57;98358.84;5073043;28;20271;-62
2022/09/17 11:00:51;;;;;;;8.83;3.80;;;;;;;29.46;52.09;98372.31;5072385;28;20196;-62
2022/09/17 11:03:43;;;;;;;10.90;3.57;;;;;;;29.32;53.21;98357.41;5072145;28;20188;-61
2022/09/17 11:06:30;;;;;;;10.07;3.53;;;;;;;29.15;54.77;98333.84;5072988;28;20188;-62
2022/09/17 11:09:08;;;;;;;8.77;3.50;;;;;;;29.23;53.52;98390.34;5072502;28;20230;-62
2022/09/17 11:11:47;;;;;;;8.13;3.53;;;;;;;28.98;56.09;98410.63;5072091;28;20283;-62
2022/09/17 11:14:34;;;;;;;10.83;3.90;;;;;;;28.74;60.00;98407.88;5072451;28;20188;-61
2022/09/17 11:17:11;;;;;;;6.17;3.30;;;;;;;28.35;59.51;98450.28;5072316;28;20200;-61
2022/09/17 11:19:46;;;;;;;13.87;4.20;;;;;;;27.98;58.41;98494.13;5068658;28;20235;-61
2022/09/17 11:22:23;;;;;;;19.47;4.43;;;;;;;27.11;67.79;98574.00;5052026;28;20192;-62
2022/09/17 11:25:05;;;;;;;13.00;3.93;;;;;;;26.69;71.17;98571.38;5051943;28;20278;-62
2022/09/17 11:27:50;;;;;;;12.43;3.70;;;;;;;26.59;70.34;98621.56;5052268;28;20189;-61
2022/09/17 11:30:19;;;;;;;4.50;2.27;;;;;;;26.02;72.64;98654.59;5052043;28;20279;-61
2022/09/17 11:33:05;;;;;;;5.77;2.40;;;;;;;25.72;71.98;98618.13;5051930;28;20704;-62
2022/09/17 11:35:36;;;;;;;4.77;2.20;;;;;;;25.42;73.48;98597.25;5052615;28;20620;-61
2022/09/17 11:38:12;;;;;;;5.17;1.83;;;;;;;25.68;72.57;98568.19;5052395;28;20255;-61
2022/09/17 11:40:43;;;;;;;7.90;2.53;;;;;;;25.60;71.71;98565.47;5052000;28;20261;-61
2022/09/17 11:43:19;;;;;;;3.87;1.63;;;;;;;25.64;72.64;98550.91;5051448;28;20254;-61
2022/09/17 11:45:57;;;;;;;4.20;2.10;;;;;;;25.67;70.67;98539.41;5051217;28;20227;-62
2022/09/17 11:48:31;;;;;;;2.90;1.30;;;;;;;25.98;71.15;98539.31;5051725;28;20184;-62